sensor_id;sensor_type;location;lat;lon;timestamp;temperature;humidity
3310;DHT22;1667;53.238;10.394;2023-06-19T00:00:55;25.10;64.30
3310;DHT22;1667;53.238;10.394;2023-06-19T00:05:54;25.10;64.60
3310;DHT22;1667;53.238;10.394;2023-06-19T00:10:54;25.00;64.10
3310;DHT22;1667;53.238;10.394;2023-06-19T00:15:52;25.00;63.90
3310;DHT22;1667;53.238;10.394;2023-06-19T00:20:51;25.00;64.20
3310;DHT22;1667;53.238;10.394;2023-06-19T00:25:52;24.90;64.40
3310;DHT22;1667;53.238;10.394;2023-06-19T00:30:51;24.80;64.20
3310;DHT22;1667;53.238;10.394;2023-06-19T00:35:50;24.90;64.20
3310;DHT22;1667;53.238;10.394;2023-06-19T00:40:49;24.80;64.80
3310;DHT22;1667;53.238;10.394;2023-06-19T00:45:49;24.80;64.80
3310;DHT22;1667;53.238;10.394;2023-06-19T00:50:49;24.80;65.10
3310;DHT22;1667;53.238;10.394;2023-06-19T00:55:48;24.80;65.00
3310;DHT22;1667;53.238;10.394;2023-06-19T01:00:50;24.70;65.30
3310;DHT22;1667;53.238;10.394;2023-06-19T01:06:09;24.70;65.40
3310;DHT22;1667;53.238;10.394;2023-06-19T01:11:09;24.60;65.30
3310;DHT22;1667;53.238;10.394;2023-06-19T01:16:24;24.60;65.50
3310;DHT22;1667;53.238;10.394;2023-06-19T01:21:24;24.60;65.90
3310;DHT22;1667;53.238;10.394;2023-06-19T01:26:26;24.60;66.30
3310;DHT22;1667;53.238;10.394;2023-06-19T01:31:30;24.50;66.20
3310;DHT22;1667;53.238;10.394;2023-06-19T01:36:30;24.50;66.30
3310;DHT22;1667;53.238;10.394;2023-06-19T01:41:32;24.50;66.30
3310;DHT22;1667;53.238;10.394;2023-06-19T01:46:31;24.50;66.10
3310;DHT22;1667;53.238;10.394;2023-06-19T01:51:33;24.40;66.30
3310;DHT22;1667;53.238;10.394;2023-06-19T01:56:33;24.40;66.10
3310;DHT22;1667;53.238;10.394;2023-06-19T02:01:31;24.40;66.30
3310;DHT22;1667;53.238;10.394;2023-06-19T02:06:30;24.40;66.50
3310;DHT22;1667;53.238;10.394;2023-06-19T02:11:29;24.30;66.80
3310;DHT22;1667;53.238;10.394;2023-06-19T02:16:29;24.30;66.70
3310;DHT22;1667;53.238;10.394;2023-06-19T02:21:27;24.20;66.60
3310;DHT22;1667;53.238;10.394;2023-06-19T02:26:26;24.20;66.60
3310;DHT22;1667;53.238;10.394;2023-06-19T02:31:26;24.20;66.70
3310;DHT22;1667;53.238;10.394;2023-06-19T02:36:26;24.10;66.50
3310;DHT22;1667;53.238;10.394;2023-06-19T02:41:25;24.10;66.60
3310;DHT22;1667;53.238;10.394;2023-06-19T02:46:24;24.10;66.40
3310;DHT22;1667;53.238;10.394;2023-06-19T02:51:22;24.20;67.00
3310;DHT22;1667;53.238;10.394;2023-06-19T02:56:23;24.20;66.70
3310;DHT22;1667;53.238;10.394;2023-06-19T03:01:22;24.10;66.10
3310;DHT22;1667;53.238;10.394;2023-06-19T03:06:21;24.10;66.50
3310;DHT22;1667;53.238;10.394;2023-06-19T03:11:20;24.00;66.60
3310;DHT22;1667;53.238;10.394;2023-06-19T03:16:20;24.00;66.60
3310;DHT22;1667;53.238;10.394;2023-06-19T03:21:20;24.00;66.50
3310;DHT22;1667;53.238;10.394;2023-06-19T03:26:21;24.10;66.80
3310;DHT22;1667;53.238;10.394;2023-06-19T03:31:22;24.00;66.70
3310;DHT22;1667;53.238;10.394;2023-06-19T03:36:22;24.00;66.40
3310;DHT22;1667;53.238;10.394;2023-06-19T03:41:23;24.00;66.70
3310;DHT22;1667;53.238;10.394;2023-06-19T03:46:25;23.90;66.90
3310;DHT22;1667;53.238;10.394;2023-06-19T03:51:23;23.80;67.50
3310;DHT22;1667;53.238;10.394;2023-06-19T03:56:22;23.80;67.20
3310;DHT22;1667;53.238;10.394;2023-06-19T04:01:21;23.80;67.30
3310;DHT22;1667;53.238;10.394;2023-06-19T04:06:21;23.90;67.60
3310;DHT22;1667;53.238;10.394;2023-06-19T04:11:20;23.80;67.50
3310;DHT22;1667;53.238;10.394;2023-06-19T04:16:18;23.80;67.30
3310;DHT22;1667;53.238;10.394;2023-06-19T04:21:17;23.90;67.40
3310;DHT22;1667;53.238;10.394;2023-06-19T04:26:17;23.90;67.40
3310;DHT22;1667;53.238;10.394;2023-06-19T04:31:18;23.90;67.60
3310;DHT22;1667;53.238;10.394;2023-06-19T04:36:17;23.90;67.50
3310;DHT22;1667;53.238;10.394;2023-06-19T04:41:17;23.90;67.50
3310;DHT22;1667;53.238;10.394;2023-06-19T04:46:15;23.90;67.60
3310;DHT22;1667;53.238;10.394;2023-06-19T04:51:17;23.90;67.70
3310;DHT22;1667;53.238;10.394;2023-06-19T04:56:19;23.90;67.80
3310;DHT22;1667;53.238;10.394;2023-06-19T05:01:18;23.90;67.70
3310;DHT22;1667;53.238;10.394;2023-06-19T05:06:20;24.00;67.80
3310;DHT22;1667;53.238;10.394;2023-06-19T05:11:20;24.00;67.70
3310;DHT22;1667;53.238;10.394;2023-06-19T05:16:18;24.00;67.50
3310;DHT22;1667;53.238;10.394;2023-06-19T05:21:17;24.10;67.50
3310;DHT22;1667;53.238;10.394;2023-06-19T05:26:16;24.00;67.40
3310;DHT22;1667;53.238;10.394;2023-06-19T05:31:16;24.10;67.30
3310;DHT22;1667;53.238;10.394;2023-06-19T05:36:15;24.10;67.70
3310;DHT22;1667;53.238;10.394;2023-06-19T05:41:14;24.10;67.30
3310;DHT22;1667;53.238;10.394;2023-06-19T05:46:13;24.20;67.40
3310;DHT22;1667;53.238;10.394;2023-06-19T05:51:14;24.20;67.40
3310;DHT22;1667;53.238;10.394;2023-06-19T05:56:12;24.20;67.70
3310;DHT22;1667;53.238;10.394;2023-06-19T06:01:11;24.20;67.60
3310;DHT22;1667;53.238;10.394;2023-06-19T06:06:10;24.20;67.60
3310;DHT22;1667;53.238;10.394;2023-06-19T06:11:09;24.20;67.80
3310;DHT22;1667;53.238;10.394;2023-06-19T06:16:08;24.20;67.30
3310;DHT22;1667;53.238;10.394;2023-06-19T06:21:06;24.20;67.40
3310;DHT22;1667;53.238;10.394;2023-06-19T06:26:05;24.30;67.80
3310;DHT22;1667;53.238;10.394;2023-06-19T06:31:05;24.30;67.50
3310;DHT22;1667;53.238;10.394;2023-06-19T06:36:04;24.30;67.80
3310;DHT22;1667;53.238;10.394;2023-06-19T06:41:04;24.30;68.10
3310;DHT22;1667;53.238;10.394;2023-06-19T06:46:04;24.30;68.60
3310;DHT22;1667;53.238;10.394;2023-06-19T06:51:03;24.30;68.00
3310;DHT22;1667;53.238;10.394;2023-06-19T06:56:02;24.30;68.60
3310;DHT22;1667;53.238;10.394;2023-06-19T07:01:00;24.30;68.50
3310;DHT22;1667;53.238;10.394;2023-06-19T07:06:01;24.30;69.20
3310;DHT22;1667;53.238;10.394;2023-06-19T07:11:00;24.30;69.10
3310;DHT22;1667;53.238;10.394;2023-06-19T07:15:58;24.30;69.60
3310;DHT22;1667;53.238;10.394;2023-06-19T07:20:58;24.20;70.10
3310;DHT22;1667;53.238;10.394;2023-06-19T07:25:58;24.30;70.10
3310;DHT22;1667;53.238;10.394;2023-06-19T07:30:57;24.30;70.10
3310;DHT22;1667;53.238;10.394;2023-06-19T07:35:55;24.40;70.40
3310;DHT22;1667;53.238;10.394;2023-06-19T07:40:54;24.40;71.80
3310;DHT22;1667;53.238;10.394;2023-06-19T07:45:54;24.50;70.60
3310;DHT22;1667;53.238;10.394;2023-06-19T07:50:53;24.60;71.30
3310;DHT22;1667;53.238;10.394;2023-06-19T07:55:52;24.60;71.00
3310;DHT22;1667;53.238;10.394;2023-06-19T08:00:51;24.60;71.50
3310;DHT22;1667;53.238;10.394;2023-06-19T08:05:51;24.70;71.20
3310;DHT22;1667;53.238;10.394;2023-06-19T08:10:50;24.80;70.80
3310;DHT22;1667;53.238;10.394;2023-06-19T08:15:48;24.90;71.00
3310;DHT22;1667;53.238;10.394;2023-06-19T08:20:46;25.00;71.10
3310;DHT22;1667;53.238;10.394;2023-06-19T08:25:46;25.00;70.20
3310;DHT22;1667;53.238;10.394;2023-06-19T08:30:45;25.10;70.10
3310;DHT22;1667;53.238;10.394;2023-06-19T08:35:44;25.20;71.50
3310;DHT22;1667;53.238;10.394;2023-06-19T08:40:45;25.30;71.20
3310;DHT22;1667;53.238;10.394;2023-06-19T08:45:53;25.30;70.60
3310;DHT22;1667;53.238;10.394;2023-06-19T08:50:53;25.50;71.10
3310;DHT22;1667;53.238;10.394;2023-06-19T08:55:54;25.50;70.70
3310;DHT22;1667;53.238;10.394;2023-06-19T09:00:56;25.60;71.30
3310;DHT22;1667;53.238;10.394;2023-06-19T09:05:55;25.70;71.60
3310;DHT22;1667;53.238;10.394;2023-06-19T09:10:56;25.90;71.70
3310;DHT22;1667;53.238;10.394;2023-06-19T09:15:58;26.10;72.00
3310;DHT22;1667;53.238;10.394;2023-06-19T09:20:59;26.40;72.00
3310;DHT22;1667;53.238;10.394;2023-06-19T09:25:59;26.70;71.40
3310;DHT22;1667;53.238;10.394;2023-06-19T09:37:58;27.40;71.10
3310;DHT22;1667;53.238;10.394;2023-06-19T09:42:59;27.80;71.20
3310;DHT22;1667;53.238;10.394;2023-06-19T09:47:59;28.20;71.00
3310;DHT22;1667;53.238;10.394;2023-06-19T09:53:20;28.50;70.50
3310;DHT22;1667;53.238;10.394;2023-06-19T09:58:22;28.80;70.70
3310;DHT22;1667;53.238;10.394;2023-06-19T10:03:21;29.20;70.70
3310;DHT22;1667;53.238;10.394;2023-06-19T10:08:29;29.50;70.40
3310;DHT22;1667;53.238;10.394;2023-06-19T10:13:34;29.90;69.70
3310;DHT22;1667;53.238;10.394;2023-06-19T10:18:44;30.30;70.50
3310;DHT22;1667;53.238;10.394;2023-06-19T10:30:39;30.80;68.60
3310;DHT22;1667;53.238;10.394;2023-06-19T10:35:39;31.10;68.20
3310;DHT22;1667;53.238;10.394;2023-06-19T10:40:38;31.30;67.90
3310;DHT22;1667;53.238;10.394;2023-06-19T10:45:40;31.50;67.80
3310;DHT22;1667;53.238;10.394;2023-06-19T10:50:42;31.60;66.00
3310;DHT22;1667;53.238;10.394;2023-06-19T10:55:41;31.80;65.50
3310;DHT22;1667;53.238;10.394;2023-06-19T11:00:41;31.90;66.10
3310;DHT22;1667;53.238;10.394;2023-06-19T11:05:43;32.10;65.80
3310;DHT22;1667;53.238;10.394;2023-06-19T11:10:42;32.30;64.30
3310;DHT22;1667;53.238;10.394;2023-06-19T11:15:42;32.40;63.80
3310;DHT22;1667;53.238;10.394;2023-06-19T11:20:45;32.50;63.10
3310;DHT22;1667;53.238;10.394;2023-06-19T11:25:44;32.50;63.00
3310;DHT22;1667;53.238;10.394;2023-06-19T11:30:46;32.40;63.00
3310;DHT22;1667;53.238;10.394;2023-06-19T11:35:47;32.40;63.10
3310;DHT22;1667;53.238;10.394;2023-06-19T11:40:47;32.40;62.60
3310;DHT22;1667;53.238;10.394;2023-06-19T11:45:49;32.30;62.50
3310;DHT22;1667;53.238;10.394;2023-06-19T11:50:49;32.40;62.90
3310;DHT22;1667;53.238;10.394;2023-06-19T11:55:48;32.40;62.20
3310;DHT22;1667;53.238;10.394;2023-06-19T12:00:49;32.50;62.20
3310;DHT22;1667;53.238;10.394;2023-06-19T12:05:47;32.60;61.50
3310;DHT22;1667;53.238;10.394;2023-06-19T12:10:48;32.80;61.70
3310;DHT22;1667;53.238;10.394;2023-06-19T12:15:46;32.90;61.70
3310;DHT22;1667;53.238;10.394;2023-06-19T12:20:46;33.10;61.40
3310;DHT22;1667;53.238;10.394;2023-06-19T12:25:45;33.20;60.90
3310;DHT22;1667;53.238;10.394;2023-06-19T12:30:43;33.30;60.90
3310;DHT22;1667;53.238;10.394;2023-06-19T12:35:42;33.30;61.00
3310;DHT22;1667;53.238;10.394;2023-06-19T12:40:42;33.30;61.40
3310;DHT22;1667;53.238;10.394;2023-06-19T12:45:41;33.50;61.60
3310;DHT22;1667;53.238;10.394;2023-06-19T12:50:40;33.60;61.30
3310;DHT22;1667;53.238;10.394;2023-06-19T12:55:38;33.80;60.90
3310;DHT22;1667;53.238;10.394;2023-06-19T13:00:58;34.00;60.90
3310;DHT22;1667;53.238;10.394;2023-06-19T13:05:57;34.10;61.00
3310;DHT22;1667;53.238;10.394;2023-06-19T13:10:56;34.30;60.20
3310;DHT22;1667;53.238;10.394;2023-06-19T13:15:54;34.50;60.50
3310;DHT22;1667;53.238;10.394;2023-06-19T13:20:54;34.70;60.50
3310;DHT22;1667;53.238;10.394;2023-06-19T13:25:53;34.90;60.30
3310;DHT22;1667;53.238;10.394;2023-06-19T13:30:52;35.10;60.40
3310;DHT22;1667;53.238;10.394;2023-06-19T13:35:50;35.20;59.70
3310;DHT22;1667;53.238;10.394;2023-06-19T13:40:51;35.30;59.60
3310;DHT22;1667;53.238;10.394;2023-06-19T13:45:49;35.40;59.70
3310;DHT22;1667;53.238;10.394;2023-06-19T13:50:48;35.60;59.50
3310;DHT22;1667;53.238;10.394;2023-06-19T13:55:47;35.60;59.40
3310;DHT22;1667;53.238;10.394;2023-06-19T14:00:47;35.60;59.50
3310;DHT22;1667;53.238;10.394;2023-06-19T14:05:46;35.60;59.20
3310;DHT22;1667;53.238;10.394;2023-06-19T14:10:44;35.60;58.90
3310;DHT22;1667;53.238;10.394;2023-06-19T14:15:43;35.50;58.80
3310;DHT22;1667;53.238;10.394;2023-06-19T14:20:43;35.40;58.70
3310;DHT22;1667;53.238;10.394;2023-06-19T14:25:42;35.40;58.80
3310;DHT22;1667;53.238;10.394;2023-06-19T14:30:41;35.30;58.50
3310;DHT22;1667;53.238;10.394;2023-06-19T14:35:39;35.30;58.70
3310;DHT22;1667;53.238;10.394;2023-06-19T14:40:40;35.30;58.40
3310;DHT22;1667;53.238;10.394;2023-06-19T14:45:38;35.30;58.40
3310;DHT22;1667;53.238;10.394;2023-06-19T14:50:38;35.20;58.40
3310;DHT22;1667;53.238;10.394;2023-06-19T14:55:36;35.20;58.40
3310;DHT22;1667;53.238;10.394;2023-06-19T15:00:37;35.10;58.20
3310;DHT22;1667;53.238;10.394;2023-06-19T15:05:36;35.00;58.40
3310;DHT22;1667;53.238;10.394;2023-06-19T15:10:34;35.00;58.60
3310;DHT22;1667;53.238;10.394;2023-06-19T15:15:33;34.90;58.60
3310;DHT22;1667;53.238;10.394;2023-06-19T15:20:33;34.90;58.60
3310;DHT22;1667;53.238;10.394;2023-06-19T15:25:31;34.80;58.70
3310;DHT22;1667;53.238;10.394;2023-06-19T15:30:30;34.80;58.50
3310;DHT22;1667;53.238;10.394;2023-06-19T15:35:28;34.70;58.20
3310;DHT22;1667;53.238;10.394;2023-06-19T15:40:28;34.70;58.10
3310;DHT22;1667;53.238;10.394;2023-06-19T15:45:27;34.50;58.10
3310;DHT22;1667;53.238;10.394;2023-06-19T15:50:25;34.40;58.10
3310;DHT22;1667;53.238;10.394;2023-06-19T15:55:24;34.20;58.40
3310;DHT22;1667;53.238;10.394;2023-06-19T16:00:26;34.10;58.20
3310;DHT22;1667;53.238;10.394;2023-06-19T16:05:25;34.00;58.30
3310;DHT22;1667;53.238;10.394;2023-06-19T16:10:23;34.00;58.40
3310;DHT22;1667;53.238;10.394;2023-06-19T16:15:22;34.00;58.80
3310;DHT22;1667;53.238;10.394;2023-06-19T16:20:26;34.00;59.10
3310;DHT22;1667;53.238;10.394;2023-06-19T16:25:25;34.20;58.80
3310;DHT22;1667;53.238;10.394;2023-06-19T16:30:24;34.20;59.00
3310;DHT22;1667;53.238;10.394;2023-06-19T16:35:23;34.10;59.00
3310;DHT22;1667;53.238;10.394;2023-06-19T16:40:23;34.10;59.60
3310;DHT22;1667;53.238;10.394;2023-06-19T16:45:23;34.10;59.00
3310;DHT22;1667;53.238;10.394;2023-06-19T16:50:25;34.00;58.70
3310;DHT22;1667;53.238;10.394;2023-06-19T16:55:25;34.00;58.90
3310;DHT22;1667;53.238;10.394;2023-06-19T17:00:23;33.90;58.70
3310;DHT22;1667;53.238;10.394;2023-06-19T17:05:23;33.80;59.00
3310;DHT22;1667;53.238;10.394;2023-06-19T17:10:24;33.70;58.20
3310;DHT22;1667;53.238;10.394;2023-06-19T17:15:24;33.50;58.80
3310;DHT22;1667;53.238;10.394;2023-06-19T17:20:27;33.40;59.20
3310;DHT22;1667;53.238;10.394;2023-06-19T17:31:27;33.30;58.80
3310;DHT22;1667;53.238;10.394;2023-06-19T17:36:26;33.20;59.00
3310;DHT22;1667;53.238;10.394;2023-06-19T17:41:25;33.00;59.20
3310;DHT22;1667;53.238;10.394;2023-06-19T17:46:24;32.90;59.60
3310;DHT22;1667;53.238;10.394;2023-06-19T17:51:24;32.80;59.60
3310;DHT22;1667;53.238;10.394;2023-06-19T17:56:23;32.70;59.80
3310;DHT22;1667;53.238;10.394;2023-06-19T18:01:22;32.60;59.60
3310;DHT22;1667;53.238;10.394;2023-06-19T18:12:27;32.30;59.80
3310;DHT22;1667;53.238;10.394;2023-06-19T18:17:26;32.10;59.90
3310;DHT22;1667;53.238;10.394;2023-06-19T18:22:24;31.90;60.20
3310;DHT22;1667;53.238;10.394;2023-06-19T18:27:23;31.70;60.10
3310;DHT22;1667;53.238;10.394;2023-06-19T18:32:23;31.60;60.60
3310;DHT22;1667;53.238;10.394;2023-06-19T18:37:21;31.50;60.90
3310;DHT22;1667;53.238;10.394;2023-06-19T18:42:20;31.40;61.10
3310;DHT22;1667;53.238;10.394;2023-06-19T18:47:20;31.40;61.10
3310;DHT22;1667;53.238;10.394;2023-06-19T18:52:20;31.20;61.10
3310;DHT22;1667;53.238;10.394;2023-06-19T18:57:18;31.10;61.30
3310;DHT22;1667;53.238;10.394;2023-06-19T19:02:19;31.00;61.40
3310;DHT22;1667;53.238;10.394;2023-06-19T19:07:18;30.90;61.60
3310;DHT22;1667;53.238;10.394;2023-06-19T19:12:18;30.80;61.80
3310;DHT22;1667;53.238;10.394;2023-06-19T19:17:17;30.60;61.90
3310;DHT22;1667;53.238;10.394;2023-06-19T19:22:16;30.50;62.20
3310;DHT22;1667;53.238;10.394;2023-06-19T19:27:14;30.30;62.60
3310;DHT22;1667;53.238;10.394;2023-06-19T19:32:15;30.20;62.90
3310;DHT22;1667;53.238;10.394;2023-06-19T19:37:14;30.10;63.20
3310;DHT22;1667;53.238;10.394;2023-06-19T19:42:12;29.90;63.50
3310;DHT22;1667;53.238;10.394;2023-06-19T19:47:11;29.70;63.80
3310;DHT22;1667;53.238;10.394;2023-06-19T19:52:11;29.60;64.10
3310;DHT22;1667;53.238;10.394;2023-06-19T19:57:10;29.50;64.10
3310;DHT22;1667;53.238;10.394;2023-06-19T20:02:09;29.40;63.90
3310;DHT22;1667;53.238;10.394;2023-06-19T20:07:07;29.30;65.00
3310;DHT22;1667;53.238;10.394;2023-06-19T20:12:09;29.10;65.00
3310;DHT22;1667;53.238;10.394;2023-06-19T20:17:18;28.90;66.80
3310;DHT22;1667;53.238;10.394;2023-06-19T20:22:16;28.70;67.60
3310;DHT22;1667;53.238;10.394;2023-06-19T20:27:16;28.60;68.40
3310;DHT22;1667;53.238;10.394;2023-06-19T20:32:15;28.40;69.00
3310;DHT22;1667;53.238;10.394;2023-06-19T20:37:14;28.30;69.40
3310;DHT22;1667;53.238;10.394;2023-06-19T20:42:13;28.20;69.80
3310;DHT22;1667;53.238;10.394;2023-06-19T20:47:16;28.00;70.20
3310;DHT22;1667;53.238;10.394;2023-06-19T20:52:15;27.80;71.10
3310;DHT22;1667;53.238;10.394;2023-06-19T20:57:13;27.50;72.40
3310;DHT22;1667;53.238;10.394;2023-06-19T21:02:12;27.00;73.60
3310;DHT22;1667;53.238;10.394;2023-06-19T21:07:12;26.90;74.30
3310;DHT22;1667;53.238;10.394;2023-06-19T21:12:10;26.70;75.10
3310;DHT22;1667;53.238;10.394;2023-06-19T21:17:09;26.70;75.00
3310;DHT22;1667;53.238;10.394;2023-06-19T21:22:07;26.70;75.00
3310;DHT22;1667;53.238;10.394;2023-06-19T21:27:07;26.70;75.00
3310;DHT22;1667;53.238;10.394;2023-06-19T21:32:06;26.70;75.20
3310;DHT22;1667;53.238;10.394;2023-06-19T21:37:05;26.60;75.40
3310;DHT22;1667;53.238;10.394;2023-06-19T21:42:04;26.60;75.30
3310;DHT22;1667;53.238;10.394;2023-06-19T21:47:08;26.40;75.60
3310;DHT22;1667;53.238;10.394;2023-06-19T21:52:07;26.20;76.40
3310;DHT22;1667;53.238;10.394;2023-06-19T21:57:05;26.10;76.80
3310;DHT22;1667;53.238;10.394;2023-06-19T22:02:04;25.90;77.50
3310;DHT22;1667;53.238;10.394;2023-06-19T22:07:05;25.80;77.80
3310;DHT22;1667;53.238;10.394;2023-06-19T22:12:04;25.80;77.70
3310;DHT22;1667;53.238;10.394;2023-06-19T22:17:04;25.80;77.60
3310;DHT22;1667;53.238;10.394;2023-06-19T22:22:05;25.80;77.50
3310;DHT22;1667;53.238;10.394;2023-06-19T22:27:04;25.80;78.00
3310;DHT22;1667;53.238;10.394;2023-06-19T22:32:03;25.70;78.00
3310;DHT22;1667;53.238;10.394;2023-06-19T22:37:04;25.60;78.40
3310;DHT22;1667;53.238;10.394;2023-06-19T22:42:03;25.50;78.40
3310;DHT22;1667;53.238;10.394;2023-06-19T22:47:01;25.50;78.20
3310;DHT22;1667;53.238;10.394;2023-06-19T22:52:00;25.50;78.20
3310;DHT22;1667;53.238;10.394;2023-06-19T22:57:02;25.40;78.20
3310;DHT22;1667;53.238;10.394;2023-06-19T23:02:00;25.30;78.60
3310;DHT22;1667;53.238;10.394;2023-06-19T23:06:59;25.20;78.90
3310;DHT22;1667;53.238;10.394;2023-06-19T23:11:58;25.10;79.50
3310;DHT22;1667;53.238;10.394;2023-06-19T23:16:59;24.90;80.00
3310;DHT22;1667;53.238;10.394;2023-06-19T23:21:58;24.80;80.20
3310;DHT22;1667;53.238;10.394;2023-06-19T23:26:56;24.80;80.00
3310;DHT22;1667;53.238;10.394;2023-06-19T23:31:55;24.70;80.20
3310;DHT22;1667;53.238;10.394;2023-06-19T23:36:58;24.60;80.50
3310;DHT22;1667;53.238;10.394;2023-06-19T23:41:56;24.60;80.20
3310;DHT22;1667;53.238;10.394;2023-06-19T23:46:58;24.50;80.20
3310;DHT22;1667;53.238;10.394;2023-06-19T23:51:57;24.50;81.20
3310;DHT22;1667;53.238;10.394;2023-06-19T23:56:56;24.50;80.40
